首页
METAR-TAF:

METAR-TAF

机场 :

切博克萨雷, 俄罗斯

纬度: 56-05-24N, 经度: 047-20-50E, 海拔: 171米

当前天气观测

该预报发布于27分钟前的20:30 UTC
风速8节,风向西北
温度 21°C
湿度 83%
气压 1019 hPa
能见度10公里或以上
散云层高于2000英尺, 积雨云.

METAR: UWKS 222030Z 32004MPS 9999 SCT020CB 21/18 Q1019 R24/290255 TEMPO -TSRA BKN011CB RMK QFE750

时间: 23:57 (20:57 UTC)

预报

该预报发布于1小时和6分钟前的19:51 UTC
预报有效从22日的 21点(UTC)到 23日的 06点(UTC)
风速14节,风向西北,有时为27节阵风
能見度: 6000
多云层高于1500英尺, 积雨云.
小阵雨
短暂存在
从 22日的 21点(UTC)到 23日的 03点(UTC)
能見度: 3100
多云层高于700英尺
多云层高于1100英尺, 积雨云.
雷暴, 小雨

TAF: UWKS 221951Z 2221/2306 32007G14MPS 6000 -SHRA BKN015CB TEMPO 2221/2303 3100 -TSRA BKN007 BKN011CB

超过4000个机场的气象观测和天气预报(METAR&TAF报告)。

可查询的气象台以黄色和红色小点在地图上表示。

将鼠标移到小点上方,可查看气象台名称。

然后点击查看天气观测和预报。

如需切换地图:点击带黑十字的绿色按钮放大地图;点击带横线的绿色按钮缩小地图;或者点击绿色箭头查看邻近地区的地图。


METAR-TAF: